sensor_id;sensor_type;location;lat;lon;timestamp;P1;durP1;ratioP1;P2;durP2;ratioP2
74503;SDS011;62988;55.776;37.544;2023-02-01T00:01:13;9.90;;;4.10;;
74503;SDS011;62988;55.776;37.544;2023-02-01T00:03:38;15.35;;;6.88;;
74503;SDS011;62988;55.776;37.544;2023-02-01T00:06:04;16.23;;;6.37;;
74503;SDS011;62988;55.776;37.544;2023-02-01T00:08:29;12.60;;;5.78;;
74503;SDS011;62988;55.776;37.544;2023-02-01T00:11:01;17.65;;;6.60;;
74503;SDS011;62988;55.776;37.544;2023-02-01T00:13:29;16.17;;;7.45;;
74503;SDS011;62988;55.776;37.544;2023-02-01T00:16:01;14.93;;;5.80;;
74503;SDS011;62988;55.776;37.544;2023-02-01T00:18:27;14.82;;;6.55;;
74503;SDS011;62988;55.776;37.544;2023-02-01T00:20:52;14.77;;;6.10;;
74503;SDS011;62988;55.776;37.544;2023-02-01T00:23:18;15.03;;;6.87;;
74503;SDS011;62988;55.776;37.544;2023-02-01T00:25:43;16.57;;;6.23;;
74503;SDS011;62988;55.776;37.544;2023-02-01T00:28:08;18.00;;;7.63;;
74503;SDS011;62988;55.776;37.544;2023-02-01T00:30:36;15.63;;;6.40;;
74503;SDS011;62988;55.776;37.544;2023-02-01T00:33:01;17.20;;;6.75;;
74503;SDS011;62988;55.776;37.544;2023-02-01T00:35:27;14.68;;;5.63;;
74503;SDS011;62988;55.776;37.544;2023-02-01T00:37:52;15.77;;;5.57;;
74503;SDS011;62988;55.776;37.544;2023-02-01T00:40:18;15.03;;;6.97;;
74503;SDS011;62988;55.776;37.544;2023-02-01T00:42:43;10.35;;;4.25;;
74503;SDS011;62988;55.776;37.544;2023-02-01T00:45:08;14.90;;;7.27;;
74503;SDS011;62988;55.776;37.544;2023-02-01T00:47:34;16.05;;;6.88;;
74503;SDS011;62988;55.776;37.544;2023-02-01T00:49:59;15.70;;;6.03;;
74503;SDS011;62988;55.776;37.544;2023-02-01T00:52:25;15.57;;;6.05;;
74503;SDS011;62988;55.776;37.544;2023-02-01T00:54:50;12.23;;;5.07;;
74503;SDS011;62988;55.776;37.544;2023-02-01T00:57:15;12.37;;;5.67;;
74503;SDS011;62988;55.776;37.544;2023-02-01T00:59:41;13.73;;;6.73;;
74503;SDS011;62988;55.776;37.544;2023-02-01T01:02:06;10.75;;;5.60;;
74503;SDS011;62988;55.776;37.544;2023-02-01T01:04:32;10.27;;;4.77;;
74503;SDS011;62988;55.776;37.544;2023-02-01T01:06:57;15.40;;;5.35;;
74503;SDS011;62988;55.776;37.544;2023-02-01T01:09:22;14.63;;;5.30;;
74503;SDS011;62988;55.776;37.544;2023-02-01T01:11:48;11.48;;;5.05;;
74503;SDS011;62988;55.776;37.544;2023-02-01T01:14:13;16.17;;;5.83;;
74503;SDS011;62988;55.776;37.544;2023-02-01T01:16:38;15.88;;;6.97;;
74503;SDS011;62988;55.776;37.544;2023-02-01T01:19:04;14.23;;;5.10;;
74503;SDS011;62988;55.776;37.544;2023-02-01T01:21:30;13.85;;;5.75;;
74503;SDS011;62988;55.776;37.544;2023-02-01T01:23:55;11.80;;;4.40;;
74503;SDS011;62988;55.776;37.544;2023-02-01T01:26:22;9.63;;;3.90;;
74503;SDS011;62988;55.776;37.544;2023-02-01T01:28:48;11.95;;;4.75;;
74503;SDS011;62988;55.776;37.544;2023-02-01T01:31:14;12.57;;;6.22;;
74503;SDS011;62988;55.776;37.544;2023-02-01T01:33:39;12.77;;;5.28;;
74503;SDS011;62988;55.776;37.544;2023-02-01T01:36:06;13.77;;;5.70;;
74503;SDS011;62988;55.776;37.544;2023-02-01T01:38:31;14.07;;;5.95;;
74503;SDS011;62988;55.776;37.544;2023-02-01T01:40:57;12.20;;;5.80;;
74503;SDS011;62988;55.776;37.544;2023-02-01T01:43:22;17.43;;;6.13;;
74503;SDS011;62988;55.776;37.544;2023-02-01T01:45:48;12.17;;;4.53;;
74503;SDS011;62988;55.776;37.544;2023-02-01T01:48:15;10.88;;;5.03;;
74503;SDS011;62988;55.776;37.544;2023-02-01T01:53:07;13.50;;;5.15;;
74503;SDS011;62988;55.776;37.544;2023-02-01T01:55:35;18.10;;;5.68;;
74503;SDS011;62988;55.776;37.544;2023-02-01T01:58:08;12.82;;;5.22;;
74503;SDS011;62988;55.776;37.544;2023-02-01T02:00:35;11.70;;;4.88;;
74503;SDS011;62988;55.776;37.544;2023-02-01T02:03:20;11.95;;;4.30;;
74503;SDS011;62988;55.776;37.544;2023-02-01T02:05:47;12.85;;;5.22;;
74503;SDS011;62988;55.776;37.544;2023-02-01T02:08:14;10.63;;;5.25;;
74503;SDS011;62988;55.776;37.544;2023-02-01T02:10:39;12.20;;;5.07;;
74503;SDS011;62988;55.776;37.544;2023-02-01T02:13:23;8.85;;;4.60;;
74503;SDS011;62988;55.776;37.544;2023-02-01T02:16:02;12.20;;;5.60;;
74503;SDS011;62988;55.776;37.544;2023-02-01T02:18:35;12.52;;;5.13;;
74503;SDS011;62988;55.776;37.544;2023-02-01T02:23:59;12.63;;;5.35;;
74503;SDS011;62988;55.776;37.544;2023-02-01T02:26:51;13.95;;;5.40;;
74503;SDS011;62988;55.776;37.544;2023-02-01T02:45:08;10.90;;;5.15;;
74503;SDS011;62988;55.776;37.544;2023-02-01T02:48:11;11.43;;;4.55;;
74503;SDS011;62988;55.776;37.544;2023-02-01T02:50:51;11.48;;;4.95;;
74503;SDS011;62988;55.776;37.544;2023-02-01T02:53:38;8.93;;;4.03;;
74503;SDS011;62988;55.776;37.544;2023-02-01T02:56:23;12.18;;;5.32;;
74503;SDS011;62988;55.776;37.544;2023-02-01T02:59:09;14.93;;;5.63;;
74503;SDS011;62988;55.776;37.544;2023-02-01T03:01:56;11.90;;;5.47;;
74503;SDS011;62988;55.776;37.544;2023-02-01T03:04:40;13.50;;;5.90;;
74503;SDS011;62988;55.776;37.544;2023-02-01T03:07:10;11.57;;;5.50;;
74503;SDS011;62988;55.776;37.544;2023-02-01T03:09:37;10.40;;;3.83;;
74503;SDS011;62988;55.776;37.544;2023-02-01T03:12:07;16.33;;;6.20;;
74503;SDS011;62988;55.776;37.544;2023-02-01T03:14:57;10.20;;;5.07;;
74503;SDS011;62988;55.776;37.544;2023-02-01T03:17:27;15.85;;;5.95;;
74503;SDS011;62988;55.776;37.544;2023-02-01T03:19:53;15.93;;;5.72;;
74503;SDS011;62988;55.776;37.544;2023-02-01T03:22:22;9.55;;;3.85;;
74503;SDS011;62988;55.776;37.544;2023-02-01T03:24:53;12.48;;;6.07;;
74503;SDS011;62988;55.776;37.544;2023-02-01T03:30:04;15.37;;;5.70;;
74503;SDS011;62988;55.776;37.544;2023-02-01T03:32:31;11.55;;;5.45;;
74503;SDS011;62988;55.776;37.544;2023-02-01T03:35:19;15.10;;;5.55;;
74503;SDS011;62988;55.776;37.544;2023-02-01T03:37:46;14.75;;;7.05;;
74503;SDS011;62988;55.776;37.544;2023-02-01T03:40:12;16.10;;;5.15;;
74503;SDS011;62988;55.776;37.544;2023-02-01T03:42:43;17.25;;;6.32;;
74503;SDS011;62988;55.776;37.544;2023-02-01T03:47:37;12.73;;;5.65;;
74503;SDS011;62988;55.776;37.544;2023-02-01T03:50:06;13.32;;;6.55;;
74503;SDS011;62988;55.776;37.544;2023-02-01T03:52:42;15.75;;;6.60;;
74503;SDS011;62988;55.776;37.544;2023-02-01T03:55:09;14.07;;;5.13;;
74503;SDS011;62988;55.776;37.544;2023-02-01T03:57:38;16.67;;;5.85;;
74503;SDS011;62988;55.776;37.544;2023-02-01T04:00:19;17.45;;;6.38;;
74503;SDS011;62988;55.776;37.544;2023-02-01T04:02:45;16.17;;;5.53;;
74503;SDS011;62988;55.776;37.544;2023-02-01T04:05:10;17.95;;;6.50;;
74503;SDS011;62988;55.776;37.544;2023-02-01T04:07:36;15.05;;;5.70;;
74503;SDS011;62988;55.776;37.544;2023-02-01T04:10:02;19.47;;;6.87;;
74503;SDS011;62988;55.776;37.544;2023-02-01T04:12:28;13.90;;;5.13;;
74503;SDS011;62988;55.776;37.544;2023-02-01T04:14:54;14.25;;;6.65;;
74503;SDS011;62988;55.776;37.544;2023-02-01T04:17:19;18.50;;;7.10;;
74503;SDS011;62988;55.776;37.544;2023-02-01T04:19:44;14.87;;;6.10;;
74503;SDS011;62988;55.776;37.544;2023-02-01T04:22:10;17.23;;;6.73;;
74503;SDS011;62988;55.776;37.544;2023-02-01T04:24:35;17.60;;;6.47;;
74503;SDS011;62988;55.776;37.544;2023-02-01T04:27:01;16.00;;;6.90;;
74503;SDS011;62988;55.776;37.544;2023-02-01T04:29:27;15.05;;;5.85;;
74503;SDS011;62988;55.776;37.544;2023-02-01T04:31:53;23.55;;;7.35;;
74503;SDS011;62988;55.776;37.544;2023-02-01T04:34:18;17.57;;;6.77;;
74503;SDS011;62988;55.776;37.544;2023-02-01T04:36:43;16.80;;;6.20;;
74503;SDS011;62988;55.776;37.544;2023-02-01T04:39:09;15.67;;;7.23;;
74503;SDS011;62988;55.776;37.544;2023-02-01T04:41:34;17.58;;;6.88;;
74503;SDS011;62988;55.776;37.544;2023-02-01T04:44:00;13.75;;;5.35;;
74503;SDS011;62988;55.776;37.544;2023-02-01T04:46:25;16.05;;;7.13;;
74503;SDS011;62988;55.776;37.544;2023-02-01T04:48:51;17.57;;;7.00;;
74503;SDS011;62988;55.776;37.544;2023-02-01T04:51:16;21.17;;;7.03;;
74503;SDS011;62988;55.776;37.544;2023-02-01T04:53:43;14.77;;;6.55;;
74503;SDS011;62988;55.776;37.544;2023-02-01T04:56:08;21.65;;;7.78;;
74503;SDS011;62988;55.776;37.544;2023-02-01T04:58:34;15.52;;;6.75;;
74503;SDS011;62988;55.776;37.544;2023-02-01T05:01:02;14.15;;;5.93;;
74503;SDS011;62988;55.776;37.544;2023-02-01T05:03:29;15.90;;;7.07;;
74503;SDS011;62988;55.776;37.544;2023-02-01T05:05:54;18.43;;;6.97;;
74503;SDS011;62988;55.776;37.544;2023-02-01T05:08:20;14.70;;;6.53;;
74503;SDS011;62988;55.776;37.544;2023-02-01T05:10:47;19.30;;;8.05;;
74503;SDS011;62988;55.776;37.544;2023-02-01T05:13:13;17.33;;;7.20;;
74503;SDS011;62988;55.776;37.544;2023-02-01T05:15:56;16.45;;;5.63;;
74503;SDS011;62988;55.776;37.544;2023-02-01T05:18:22;19.43;;;7.53;;
74503;SDS011;62988;55.776;37.544;2023-02-01T05:20:47;16.90;;;6.33;;
74503;SDS011;62988;55.776;37.544;2023-02-01T05:23:12;14.87;;;6.23;;
74503;SDS011;62988;55.776;37.544;2023-02-01T05:25:38;18.33;;;8.13;;
74503;SDS011;62988;55.776;37.544;2023-02-01T05:28:03;15.23;;;6.87;;
74503;SDS011;62988;55.776;37.544;2023-02-01T05:30:28;17.55;;;6.68;;
74503;SDS011;62988;55.776;37.544;2023-02-01T05:32:54;17.40;;;6.10;;
74503;SDS011;62988;55.776;37.544;2023-02-01T05:35:20;18.23;;;6.77;;
74503;SDS011;62988;55.776;37.544;2023-02-01T05:37:45;20.92;;;7.78;;
74503;SDS011;62988;55.776;37.544;2023-02-01T05:40:11;18.60;;;6.57;;
74503;SDS011;62988;55.776;37.544;2023-02-01T05:42:36;17.75;;;7.20;;
74503;SDS011;62988;55.776;37.544;2023-02-01T05:45:02;16.13;;;6.67;;
74503;SDS011;62988;55.776;37.544;2023-02-01T05:47:27;20.95;;;7.75;;
74503;SDS011;62988;55.776;37.544;2023-02-01T05:49:53;20.65;;;8.07;;
74503;SDS011;62988;55.776;37.544;2023-02-01T05:52:18;19.70;;;6.20;;
74503;SDS011;62988;55.776;37.544;2023-02-01T05:54:45;17.23;;;7.10;;
74503;SDS011;62988;55.776;37.544;2023-02-01T05:57:10;17.50;;;6.90;;
74503;SDS011;62988;55.776;37.544;2023-02-01T05:59:37;17.13;;;7.25;;
74503;SDS011;62988;55.776;37.544;2023-02-01T06:02:06;19.08;;;7.35;;
74503;SDS011;62988;55.776;37.544;2023-02-01T06:04:31;19.67;;;7.55;;
74503;SDS011;62988;55.776;37.544;2023-02-01T06:06:57;17.43;;;6.73;;
74503;SDS011;62988;55.776;37.544;2023-02-01T06:09:22;17.97;;;7.30;;
74503;SDS011;62988;55.776;37.544;2023-02-01T06:11:47;17.40;;;5.60;;
74503;SDS011;62988;55.776;37.544;2023-02-01T06:14:13;23.27;;;7.50;;
74503;SDS011;62988;55.776;37.544;2023-02-01T06:16:38;17.77;;;6.40;;
74503;SDS011;62988;55.776;37.544;2023-02-01T06:19:03;21.03;;;7.50;;
74503;SDS011;62988;55.776;37.544;2023-02-01T06:21:29;19.63;;;7.30;;
74503;SDS011;62988;55.776;37.544;2023-02-01T06:23:54;24.37;;;8.53;;
74503;SDS011;62988;55.776;37.544;2023-02-01T06:26:20;25.42;;;9.95;;
74503;SDS011;62988;55.776;37.544;2023-02-01T06:28:45;20.08;;;8.23;;
74503;SDS011;62988;55.776;37.544;2023-02-01T06:31:11;19.13;;;8.35;;
74503;SDS011;62988;55.776;37.544;2023-02-01T06:33:36;24.38;;;8.45;;
74503;SDS011;62988;55.776;37.544;2023-02-01T06:36:03;20.73;;;8.32;;
74503;SDS011;62988;55.776;37.544;2023-02-01T06:38:29;18.73;;;7.63;;
74503;SDS011;62988;55.776;37.544;2023-02-01T06:40:55;18.60;;;8.38;;
74503;SDS011;62988;55.776;37.544;2023-02-01T06:43:21;21.10;;;8.27;;
74503;SDS011;62988;55.776;37.544;2023-02-01T06:45:47;20.02;;;7.53;;
74503;SDS011;62988;55.776;37.544;2023-02-01T06:48:12;19.60;;;7.97;;
74503;SDS011;62988;55.776;37.544;2023-02-01T06:50:37;25.40;;;8.60;;
74503;SDS011;62988;55.776;37.544;2023-02-01T06:53:03;20.97;;;8.80;;
74503;SDS011;62988;55.776;37.544;2023-02-01T06:55:28;22.63;;;7.60;;
74503;SDS011;62988;55.776;37.544;2023-02-01T06:57:54;19.50;;;7.93;;
74503;SDS011;62988;55.776;37.544;2023-02-01T07:00:20;23.83;;;7.68;;
74503;SDS011;62988;55.776;37.544;2023-02-01T07:02:45;20.27;;;7.53;;
74503;SDS011;62988;55.776;37.544;2023-02-01T07:05:10;24.43;;;7.77;;
74503;SDS011;62988;55.776;37.544;2023-02-01T07:07:36;20.33;;;8.27;;
74503;SDS011;62988;55.776;37.544;2023-02-01T07:10:01;19.17;;;7.73;;
74503;SDS011;62988;55.776;37.544;2023-02-01T07:12:26;19.93;;;7.33;;
74503;SDS011;62988;55.776;37.544;2023-02-01T07:14:52;18.77;;;8.53;;
74503;SDS011;62988;55.776;37.544;2023-02-01T07:17:17;21.02;;;8.35;;
74503;SDS011;62988;55.776;37.544;2023-02-01T07:19:42;22.47;;;9.03;;
74503;SDS011;62988;55.776;37.544;2023-02-01T07:22:08;18.03;;;6.90;;
74503;SDS011;62988;55.776;37.544;2023-02-01T07:24:33;18.27;;;7.20;;
74503;SDS011;62988;55.776;37.544;2023-02-01T07:26:59;22.27;;;8.18;;
74503;SDS011;62988;55.776;37.544;2023-02-01T07:29:24;24.03;;;8.00;;
74503;SDS011;62988;55.776;37.544;2023-02-01T07:31:49;25.00;;;8.27;;
74503;SDS011;62988;55.776;37.544;2023-02-01T07:34:15;23.47;;;8.27;;
74503;SDS011;62988;55.776;37.544;2023-02-01T07:36:40;24.73;;;9.17;;
74503;SDS011;62988;55.776;37.544;2023-02-01T07:39:06;27.35;;;8.60;;
74503;SDS011;62988;55.776;37.544;2023-02-01T07:41:32;21.73;;;8.98;;
74503;SDS011;62988;55.776;37.544;2023-02-01T07:43:57;23.98;;;8.93;;
74503;SDS011;62988;55.776;37.544;2023-02-01T07:46:23;21.73;;;9.13;;
74503;SDS011;62988;55.776;37.544;2023-02-01T07:48:48;22.17;;;7.90;;
74503;SDS011;62988;55.776;37.544;2023-02-01T07:51:14;16.00;;;7.37;;
74503;SDS011;62988;55.776;37.544;2023-02-01T07:53:40;24.92;;;8.45;;
74503;SDS011;62988;55.776;37.544;2023-02-01T07:56:16;24.02;;;8.80;;
74503;SDS011;62988;55.776;37.544;2023-02-01T07:58:42;27.45;;;9.60;;
74503;SDS011;62988;55.776;37.544;2023-02-01T08:01:14;22.65;;;9.85;;
74503;SDS011;62988;55.776;37.544;2023-02-01T08:03:50;23.70;;;8.65;;
74503;SDS011;62988;55.776;37.544;2023-02-01T08:06:16;23.23;;;7.75;;
74503;SDS011;62988;55.776;37.544;2023-02-01T08:08:41;20.02;;;8.00;;
74503;SDS011;62988;55.776;37.544;2023-02-01T08:11:10;23.77;;;8.45;;
74503;SDS011;62988;55.776;37.544;2023-02-01T08:13:35;22.98;;;8.52;;
74503;SDS011;62988;55.776;37.544;2023-02-01T08:16:02;21.63;;;7.83;;
74503;SDS011;62988;55.776;37.544;2023-02-01T08:18:27;21.48;;;7.93;;
74503;SDS011;62988;55.776;37.544;2023-02-01T08:20:53;23.73;;;8.93;;
74503;SDS011;62988;55.776;37.544;2023-02-01T08:23:19;20.42;;;8.35;;
74503;SDS011;62988;55.776;37.544;2023-02-01T08:25:44;18.63;;;8.00;;
74503;SDS011;62988;55.776;37.544;2023-02-01T08:28:10;24.38;;;7.95;;
74503;SDS011;62988;55.776;37.544;2023-02-01T08:30:38;22.23;;;8.53;;
74503;SDS011;62988;55.776;37.544;2023-02-01T08:33:05;17.35;;;6.95;;
74503;SDS011;62988;55.776;37.544;2023-02-01T08:35:32;21.77;;;8.73;;
74503;SDS011;62988;55.776;37.544;2023-02-01T08:37:57;23.13;;;8.75;;
74503;SDS011;62988;55.776;37.544;2023-02-01T08:40:22;20.53;;;9.20;;
74503;SDS011;62988;55.776;37.544;2023-02-01T08:42:48;17.88;;;6.85;;
74503;SDS011;62988;55.776;37.544;2023-02-01T08:45:17;21.00;;;8.00;;
74503;SDS011;62988;55.776;37.544;2023-02-01T08:47:43;17.13;;;7.20;;
74503;SDS011;62988;55.776;37.544;2023-02-01T08:50:09;25.02;;;8.23;;
74503;SDS011;62988;55.776;37.544;2023-02-01T08:52:35;22.92;;;8.80;;
74503;SDS011;62988;55.776;37.544;2023-02-01T08:55:00;23.55;;;8.95;;
74503;SDS011;62988;55.776;37.544;2023-02-01T08:57:25;22.60;;;8.07;;
74503;SDS011;62988;55.776;37.544;2023-02-01T08:59:51;23.13;;;8.48;;
74503;SDS011;62988;55.776;37.544;2023-02-01T09:02:17;23.87;;;9.43;;
74503;SDS011;62988;55.776;37.544;2023-02-01T09:04:42;16.58;;;7.53;;
74503;SDS011;62988;55.776;37.544;2023-02-01T09:07:08;19.48;;;7.43;;
74503;SDS011;62988;55.776;37.544;2023-02-01T09:09:34;19.38;;;7.63;;
74503;SDS011;62988;55.776;37.544;2023-02-01T09:11:59;18.88;;;8.02;;
74503;SDS011;62988;55.776;37.544;2023-02-01T09:14:25;18.00;;;7.70;;
74503;SDS011;62988;55.776;37.544;2023-02-01T09:16:50;20.93;;;7.57;;
74503;SDS011;62988;55.776;37.544;2023-02-01T09:19:16;16.63;;;6.65;;
74503;SDS011;62988;55.776;37.544;2023-02-01T09:21:41;17.98;;;6.97;;
74503;SDS011;62988;55.776;37.544;2023-02-01T09:24:08;18.10;;;7.18;;
74503;SDS011;62988;55.776;37.544;2023-02-01T09:26:33;18.38;;;6.65;;
74503;SDS011;62988;55.776;37.544;2023-02-01T09:28:59;21.37;;;7.63;;
74503;SDS011;62988;55.776;37.544;2023-02-01T09:31:25;17.15;;;7.38;;
74503;SDS011;62988;55.776;37.544;2023-02-01T09:33:50;15.82;;;6.80;;
74503;SDS011;62988;55.776;37.544;2023-02-01T09:36:15;21.67;;;7.93;;
74503;SDS011;62988;55.776;37.544;2023-02-01T09:38:41;18.08;;;6.63;;
74503;SDS011;62988;55.776;37.544;2023-02-01T09:41:09;12.65;;;5.60;;
74503;SDS011;62988;55.776;37.544;2023-02-01T09:46:23;14.30;;;6.70;;
74503;SDS011;62988;55.776;37.544;2023-02-01T09:48:49;14.65;;;5.53;;
74503;SDS011;62988;55.776;37.544;2023-02-01T09:51:31;15.55;;;6.28;;
74503;SDS011;62988;55.776;37.544;2023-02-01T09:54:05;20.92;;;7.57;;
74503;SDS011;62988;55.776;37.544;2023-02-01T09:56:47;19.33;;;8.13;;
74503;SDS011;62988;55.776;37.544;2023-02-01T09:59:23;21.85;;;8.80;;
74503;SDS011;62988;55.776;37.544;2023-02-01T10:01:51;20.27;;;8.63;;
74503;SDS011;62988;55.776;37.544;2023-02-01T10:04:16;18.83;;;8.63;;
74503;SDS011;62988;55.776;37.544;2023-02-01T10:06:55;27.60;;;9.30;;
74503;SDS011;62988;55.776;37.544;2023-02-01T10:14:51;23.58;;;8.55;;
74503;SDS011;62988;55.776;37.544;2023-02-01T10:19:49;22.57;;;8.53;;
74503;SDS011;62988;55.776;37.544;2023-02-01T10:22:22;23.80;;;9.57;;
74503;SDS011;62988;55.776;37.544;2023-02-01T10:24:54;22.20;;;7.88;;
74503;SDS011;62988;55.776;37.544;2023-02-01T10:27:33;19.58;;;9.00;;
74503;SDS011;62988;55.776;37.544;2023-02-01T10:29:59;21.00;;;9.15;;
74503;SDS011;62988;55.776;37.544;2023-02-01T10:32:29;20.13;;;8.73;;
74503;SDS011;62988;55.776;37.544;2023-02-01T10:34:57;23.60;;;9.55;;
74503;SDS011;62988;55.776;37.544;2023-02-01T10:37:24;21.15;;;9.13;;
74503;SDS011;62988;55.776;37.544;2023-02-01T10:39:52;20.33;;;9.82;;
74503;SDS011;62988;55.776;37.544;2023-02-01T10:42:19;23.55;;;9.75;;
74503;SDS011;62988;55.776;37.544;2023-02-01T10:44:47;24.98;;;9.60;;
74503;SDS011;62988;55.776;37.544;2023-02-01T10:47:13;25.38;;;10.48;;
74503;SDS011;62988;55.776;37.544;2023-02-01T10:49:41;24.40;;;9.77;;
74503;SDS011;62988;55.776;37.544;2023-02-01T10:52:12;27.30;;;11.23;;
74503;SDS011;62988;55.776;37.544;2023-02-01T10:54:39;21.48;;;9.40;;
74503;SDS011;62988;55.776;37.544;2023-02-01T10:57:20;20.50;;;10.30;;
74503;SDS011;62988;55.776;37.544;2023-02-01T10:59:45;22.85;;;9.85;;
74503;SDS011;62988;55.776;37.544;2023-02-01T11:02:31;25.77;;;10.87;;
74503;SDS011;62988;55.776;37.544;2023-02-01T11:05:00;29.88;;;12.43;;
74503;SDS011;62988;55.776;37.544;2023-02-01T11:07:26;23.15;;;9.50;;
74503;SDS011;62988;55.776;37.544;2023-02-01T11:09:52;25.08;;;10.57;;
74503;SDS011;62988;55.776;37.544;2023-02-01T11:12:33;23.33;;;10.13;;
74503;SDS011;62988;55.776;37.544;2023-02-01T11:15:01;18.90;;;8.48;;
74503;SDS011;62988;55.776;37.544;2023-02-01T11:17:28;23.13;;;9.82;;
74503;SDS011;62988;55.776;37.544;2023-02-01T11:20:02;24.05;;;9.15;;
74503;SDS011;62988;55.776;37.544;2023-02-01T11:22:27;22.38;;;9.63;;
74503;SDS011;62988;55.776;37.544;2023-02-01T11:24:54;23.90;;;9.95;;
74503;SDS011;62988;55.776;37.544;2023-02-01T11:27:20;28.08;;;10.52;;
74503;SDS011;62988;55.776;37.544;2023-02-01T11:29:47;33.10;;;11.23;;
74503;SDS011;62988;55.776;37.544;2023-02-01T11:32:15;25.30;;;10.18;;
74503;SDS011;62988;55.776;37.544;2023-02-01T11:35:03;25.73;;;10.73;;
74503;SDS011;62988;55.776;37.544;2023-02-01T11:37:28;22.52;;;9.75;;
74503;SDS011;62988;55.776;37.544;2023-02-01T11:39:58;25.80;;;9.68;;
74503;SDS011;62988;55.776;37.544;2023-02-01T11:42:24;22.75;;;9.93;;
74503;SDS011;62988;55.776;37.544;2023-02-01T11:44:50;20.10;;;9.10;;
74503;SDS011;62988;55.776;37.544;2023-02-01T11:47:26;16.73;;;7.03;;
74503;SDS011;62988;55.776;37.544;2023-02-01T11:49:52;22.88;;;9.18;;
74503;SDS011;62988;55.776;37.544;2023-02-01T11:52:31;17.48;;;7.53;;
74503;SDS011;62988;55.776;37.544;2023-02-01T12:02:54;26.75;;;9.60;;
74503;SDS011;62988;55.776;37.544;2023-02-01T12:10:24;20.75;;;9.35;;
74503;SDS011;62988;55.776;37.544;2023-02-01T12:23:33;28.97;;;9.80;;
74503;SDS011;62988;55.776;37.544;2023-02-01T12:33:42;21.77;;;9.18;;
74503;SDS011;62988;55.776;37.544;2023-02-01T12:36:32;20.45;;;7.20;;
74503;SDS011;62988;55.776;37.544;2023-02-01T12:39:16;19.08;;;8.77;;
74503;SDS011;62988;55.776;37.544;2023-02-01T12:41:45;18.77;;;8.07;;
74503;SDS011;62988;55.776;37.544;2023-02-01T12:46:54;17.23;;;7.45;;
74503;SDS011;62988;55.776;37.544;2023-02-01T12:51:50;14.43;;;5.95;;
74503;SDS011;62988;55.776;37.544;2023-02-01T12:59:22;14.10;;;5.57;;
74503;SDS011;62988;55.776;37.544;2023-02-01T13:01:57;18.85;;;7.13;;
74503;SDS011;62988;55.776;37.544;2023-02-01T13:04:34;16.02;;;6.90;;
74503;SDS011;62988;55.776;37.544;2023-02-01T13:12:37;14.23;;;5.38;;
74503;SDS011;62988;55.776;37.544;2023-02-01T13:17:38;10.23;;;5.03;;
74503;SDS011;62988;55.776;37.544;2023-02-01T13:20:06;11.90;;;5.68;;
74503;SDS011;62988;55.776;37.544;2023-02-01T13:22:37;13.98;;;6.43;;
74503;SDS011;62988;55.776;37.544;2023-02-01T13:27:35;13.27;;;5.88;;
74503;SDS011;62988;55.776;37.544;2023-02-01T13:30:02;16.63;;;6.38;;
74503;SDS011;62988;55.776;37.544;2023-02-01T13:32:37;13.73;;;6.55;;
74503;SDS011;62988;55.776;37.544;2023-02-01T13:35:17;16.08;;;6.53;;
74503;SDS011;62988;55.776;37.544;2023-02-01T13:42:58;15.63;;;6.57;;
74503;SDS011;62988;55.776;37.544;2023-02-01T13:45:29;13.07;;;5.40;;
74503;SDS011;62988;55.776;37.544;2023-02-01T13:47:56;15.52;;;6.55;;
74503;SDS011;62988;55.776;37.544;2023-02-01T13:50:49;10.55;;;5.00;;
74503;SDS011;62988;55.776;37.544;2023-02-01T13:55:37;15.45;;;5.97;;
74503;SDS011;62988;55.776;37.544;2023-02-01T14:00:35;17.63;;;6.47;;
74503;SDS011;62988;55.776;37.544;2023-02-01T14:13:29;9.60;;;4.22;;
74503;SDS011;62988;55.776;37.544;2023-02-01T14:21:18;12.77;;;5.38;;
74503;SDS011;62988;55.776;37.544;2023-02-01T14:23:45;15.38;;;5.55;;
74503;SDS011;62988;55.776;37.544;2023-02-01T14:26:12;15.13;;;4.97;;
74503;SDS011;62988;55.776;37.544;2023-02-01T14:28:43;15.35;;;5.47;;
74503;SDS011;62988;55.776;37.544;2023-02-01T14:31:16;12.63;;;5.05;;
74503;SDS011;62988;55.776;37.544;2023-02-01T14:33:42;12.05;;;4.60;;
74503;SDS011;62988;55.776;37.544;2023-02-01T14:36:09;9.07;;;4.25;;
74503;SDS011;62988;55.776;37.544;2023-02-01T14:38:37;11.38;;;4.10;;
74503;SDS011;62988;55.776;37.544;2023-02-01T14:41:21;14.48;;;6.22;;
74503;SDS011;62988;55.776;37.544;2023-02-01T14:44:13;10.27;;;4.97;;
74503;SDS011;62988;55.776;37.544;2023-02-01T14:49:22;11.57;;;4.45;;
74503;SDS011;62988;55.776;37.544;2023-02-01T14:51:48;11.63;;;4.90;;
74503;SDS011;62988;55.776;37.544;2023-02-01T14:54:15;16.02;;;6.45;;
74503;SDS011;62988;55.776;37.544;2023-02-01T14:56:40;14.77;;;6.00;;
74503;SDS011;62988;55.776;37.544;2023-02-01T14:59:07;18.00;;;5.85;;
74503;SDS011;62988;55.776;37.544;2023-02-01T15:01:35;13.90;;;5.28;;
74503;SDS011;62988;55.776;37.544;2023-02-01T15:04:08;14.07;;;6.47;;
74503;SDS011;62988;55.776;37.544;2023-02-01T15:14:21;11.73;;;4.93;;
74503;SDS011;62988;55.776;37.544;2023-02-01T15:16:47;15.40;;;6.30;;
74503;SDS011;62988;55.776;37.544;2023-02-01T15:19:18;18.45;;;7.30;;
74503;SDS011;62988;55.776;37.544;2023-02-01T15:21:46;12.00;;;5.60;;
74503;SDS011;62988;55.776;37.544;2023-02-01T15:24:13;15.02;;;6.53;;
74503;SDS011;62988;55.776;37.544;2023-02-01T15:26:38;12.20;;;5.35;;
74503;SDS011;62988;55.776;37.544;2023-02-01T15:29:04;16.33;;;6.22;;
74503;SDS011;62988;55.776;37.544;2023-02-01T15:31:33;18.02;;;6.15;;
74503;SDS011;62988;55.776;37.544;2023-02-01T15:33:58;12.50;;;5.40;;
74503;SDS011;62988;55.776;37.544;2023-02-01T15:36:24;10.85;;;4.75;;
74503;SDS011;62988;55.776;37.544;2023-02-01T15:41:36;12.05;;;5.50;;
74503;SDS011;62988;55.776;37.544;2023-02-01T15:44:03;11.80;;;5.30;;
74503;SDS011;62988;55.776;37.544;2023-02-01T15:46:36;14.25;;;5.57;;
74503;SDS011;62988;55.776;37.544;2023-02-01T15:49:03;14.02;;;5.55;;
74503;SDS011;62988;55.776;37.544;2023-02-01T15:51:30;15.90;;;6.47;;
74503;SDS011;62988;55.776;37.544;2023-02-01T15:54:07;13.70;;;5.45;;
74503;SDS011;62988;55.776;37.544;2023-02-01T15:56:39;14.75;;;6.65;;
74503;SDS011;62988;55.776;37.544;2023-02-01T15:59:12;14.80;;;6.28;;
74503;SDS011;62988;55.776;37.544;2023-02-01T16:01:38;15.27;;;6.50;;
74503;SDS011;62988;55.776;37.544;2023-02-01T16:06:35;14.48;;;6.03;;
74503;SDS011;62988;55.776;37.544;2023-02-01T16:09:11;16.40;;;6.38;;
74503;SDS011;62988;55.776;37.544;2023-02-01T16:11:41;17.58;;;6.47;;
74503;SDS011;62988;55.776;37.544;2023-02-01T16:14:06;14.15;;;5.82;;
74503;SDS011;62988;55.776;37.544;2023-02-01T16:16:31;17.23;;;7.33;;
74503;SDS011;62988;55.776;37.544;2023-02-01T16:18:57;15.15;;;6.07;;
74503;SDS011;62988;55.776;37.544;2023-02-01T16:21:22;16.98;;;6.53;;
74503;SDS011;62988;55.776;37.544;2023-02-01T16:23:49;13.00;;;5.50;;
74503;SDS011;62988;55.776;37.544;2023-02-01T16:26:15;17.88;;;5.53;;
74503;SDS011;62988;55.776;37.544;2023-02-01T16:28:41;16.90;;;6.00;;
74503;SDS011;62988;55.776;37.544;2023-02-01T16:31:09;18.13;;;6.37;;
74503;SDS011;62988;55.776;37.544;2023-02-01T16:33:41;17.58;;;6.97;;
74503;SDS011;62988;55.776;37.544;2023-02-01T16:36:07;14.85;;;5.93;;
74503;SDS011;62988;55.776;37.544;2023-02-01T16:38:33;17.98;;;7.78;;